Time,TemperatureF,DewpointF,PressureIn,WindDirection,WindDirectionDegrees,WindSpeedMPH,WindSpeedGustMPH,Humidity,HourlyPrecipIn,Conditions,Clouds,dailyrainin,SolarRadiationWatts/m^2,SoftwareType,DateUTC
2013-07-19 00:02:00,77.0,73.0,-100.00,East,95,0.0,5.0,87,0.00,,,0.09,0.000000,,2013-07-19 05:02:00,
2013-07-19 00:32:00,75.0,73.0,-100.00,ESE,122,1.0,3.0,94,0.01,,,0.10,0.000000,,2013-07-19 05:32:00,
2013-07-19 00:43:00,75.0,73.0,-100.00,ESE,122,1.0,3.0,94,0.01,,,0.10,0.000000,,2013-07-19 05:43:00,
2013-07-19 00:53:00,75.0,73.0,-100.00,ESE,122,1.0,3.0,94,0.01,,,0.10,0.000000,,2013-07-19 05:53:00,
2013-07-19 01:01:00,75.0,73.0,-100.00,ESE,122,1.0,3.0,94,0.01,,,0.10,0.000000,,2013-07-19 06:01:00,
2013-07-19 01:33:00,74.0,73.0,-100.00,SE,130,0.0,2.0,97,0.00,,,0.10,0.000000,,2013-07-19 06:33:00,
2013-07-19 01:43:00,74.0,73.0,-100.00,SE,130,0.0,2.0,97,0.00,,,0.10,0.000000,,2013-07-19 06:43:00,
2013-07-19 01:53:00,74.0,73.0,-100.00,SE,130,0.0,2.0,97,0.00,,,0.10,0.000000,,2013-07-19 06:53:00,
2013-07-19 02:01:00,74.0,73.0,-100.00,SE,130,0.0,2.0,97,0.00,,,0.10,0.000000,,2013-07-19 07:01:00,
2013-07-19 02:33:00,74.0,73.0,-100.00,South,169,0.0,4.0,98,0.00,,,-99.99,0.000000,,2013-07-19 07:33:00,
2013-07-19 02:43:00,74.0,73.0,-100.00,South,169,0.0,4.0,98,0.00,,,-99.99,0.000000,,2013-07-19 07:43:00,
2013-07-19 02:53:00,74.0,73.0,-100.00,South,169,0.0,4.0,98,0.00,,,-99.99,0.000000,,2013-07-19 07:53:00,
2013-07-19 03:01:00,74.0,73.0,-100.00,South,169,0.0,4.0,98,0.00,,,-99.99,0.000000,,2013-07-19 08:01:00,
2013-07-19 03:33:00,73.0,73.0,-100.00,ESE,123,0.0,3.0,99,0.01,,,-99.99,0.000000,,2013-07-19 08:33:00,
2013-07-19 03:43:00,73.0,73.0,-100.00,ESE,123,0.0,3.0,99,0.01,,,-99.99,0.000000,,2013-07-19 08:43:00,
2013-07-19 03:52:00,73.0,73.0,-100.00,ESE,123,0.0,3.0,99,0.01,,,-99.99,0.000000,,2013-07-19 08:52:00,
2013-07-19 04:02:00,73.0,73.0,-100.00,ESE,123,0.0,3.0,99,0.01,,,-99.99,0.000000,,2013-07-19 09:02:00,
2013-07-19 04:32:00,73.0,73.0,-100.00,SE,128,0.0,2.0,99,0.00,,,-99.99,0.000000,,2013-07-19 09:32:00,
2013-07-19 04:43:00,73.0,73.0,-100.00,SE,128,0.0,2.0,99,0.00,,,-99.99,0.000000,,2013-07-19 09:43:00,
2013-07-19 04:52:00,73.0,73.0,-100.00,SE,128,0.0,2.0,99,0.00,,,-99.99,0.000000,,2013-07-19 09:52:00,
2013-07-19 05:01:00,73.0,73.0,-100.00,SE,128,0.0,2.0,99,0.00,,,-99.99,0.000000,,2013-07-19 10:01:00,
2013-07-19 05:33:00,72.0,72.0,-100.00,SE,125,0.0,3.0,99,0.00,,,-99.99,0.000000,,2013-07-19 10:33:00,
2013-07-19 05:43:00,72.0,72.0,-100.00,SE,125,0.0,3.0,99,0.00,,,-99.99,0.000000,,2013-07-19 10:43:00,
2013-07-19 05:52:00,72.0,72.0,-100.00,SE,125,0.0,3.0,99,0.00,,,-99.99,0.000000,,2013-07-19 10:52:00,
2013-07-19 06:02:00,72.0,72.0,-100.00,SE,125,0.0,3.0,99,0.00,,,-99.99,0.000000,,2013-07-19 11:02:00,
2013-07-19 06:33:00,71.0,71.0,-100.00,WSW,251,0.0,2.0,99,0.01,,,0.12,3.000000,,2013-07-19 11:33:00,
2013-07-19 06:43:00,71.0,71.0,-100.00,WSW,251,0.0,2.0,99,0.01,,,0.12,3.000000,,2013-07-19 11:43:00,
2013-07-19 06:52:00,71.0,71.0,-100.00,WSW,251,0.0,2.0,99,0.01,,,0.12,3.000000,,2013-07-19 11:52:00,
2013-07-19 07:01:00,71.0,71.0,-100.00,WSW,251,0.0,2.0,99,0.01,,,0.12,3.000000,,2013-07-19 12:01:00,
2013-07-19 07:33:00,72.0,72.0,-100.00,SSE,160,0.0,0.0,99,0.00,,,0.12,37.000000,,2013-07-19 12:33:00,
2013-07-19 07:44:00,72.0,72.0,-100.00,SSE,160,0.0,0.0,99,0.00,,,0.12,37.000000,,2013-07-19 12:44:00,
2013-07-19 07:52:00,72.0,72.0,-100.00,SSE,160,0.0,0.0,99,0.00,,,0.12,37.000000,,2013-07-19 12:52:00,
2013-07-19 08:02:00,72.0,72.0,-100.00,SSE,160,0.0,0.0,99,0.00,,,0.12,37.000000,,2013-07-19 13:02:00,
2013-07-19 08:32:00,78.0,74.0,-100.00,SW,221,2.0,5.0,89,0.00,,,0.12,189.000000,,2013-07-19 13:32:00,
2013-07-19 08:43:00,78.0,74.0,-100.00,SW,221,2.0,5.0,89,0.00,,,0.12,189.000000,,2013-07-19 13:43:00,
2013-07-19 08:53:00,78.0,74.0,-100.00,SW,221,2.0,5.0,89,0.00,,,0.12,189.000000,,2013-07-19 13:53:00,
2013-07-19 09:02:00,78.0,74.0,-100.00,SW,221,2.0,5.0,89,0.00,,,0.12,189.000000,,2013-07-19 14:02:00,
2013-07-19 09:33:00,81.0,73.0,-100.00,WSW,237,4.0,10.0,77,0.01,,,0.13,525.000000,,2013-07-19 14:33:00,
2013-07-19 09:43:00,81.0,73.0,-100.00,WSW,237,4.0,10.0,77,0.01,,,0.13,525.000000,,2013-07-19 14:43:00,
2013-07-19 09:53:00,81.0,73.0,-100.00,WSW,237,4.0,10.0,77,0.01,,,0.13,525.000000,,2013-07-19 14:53:00,
2013-07-19 10:02:00,81.0,73.0,-100.00,WSW,237,4.0,10.0,77,0.01,,,0.13,525.000000,,2013-07-19 15:02:00,
2013-07-19 10:32:00,83.0,72.0,-100.00,WSW,248,5.0,11.0,69,0.00,,,0.13,673.000000,,2013-07-19 15:32:00,
2013-07-19 10:43:00,83.0,72.0,-100.00,WSW,248,5.0,11.0,69,0.00,,,0.13,673.000000,,2013-07-19 15:43:00,
2013-07-19 10:52:00,83.0,72.0,-100.00,WSW,248,5.0,11.0,69,0.00,,,0.13,673.000000,,2013-07-19 15:52:00,
2013-07-19 11:01:00,83.0,72.0,-100.00,WSW,248,5.0,11.0,69,0.00,,,0.13,673.000000,,2013-07-19 16:01:00,
2013-07-19 11:32:00,85.0,72.0,-100.00,WSW,242,5.0,10.0,65,0.00,,,0.13,853.000000,,2013-07-19 16:32:00,
2013-07-19 11:43:00,85.0,72.0,-100.00,WSW,242,5.0,10.0,65,0.00,,,0.13,853.000000,,2013-07-19 16:43:00,
2013-07-19 11:53:00,85.0,72.0,-100.00,WSW,242,5.0,10.0,65,0.00,,,0.13,853.000000,,2013-07-19 16:53:00,
2013-07-19 12:02:00,85.0,72.0,-100.00,WSW,242,5.0,10.0,65,0.00,,,0.13,853.000000,,2013-07-19 17:02:00,
2013-07-19 12:32:00,87.0,73.0,-100.00,WSW,246,4.0,13.0,63,0.00,,,0.13,965.000000,,2013-07-19 17:32:00,
2013-07-19 12:43:00,87.0,73.0,-100.00,WSW,246,4.0,13.0,63,0.00,,,0.13,965.000000,,2013-07-19 17:43:00,
2013-07-19 12:52:00,87.0,73.0,-100.00,WSW,246,4.0,13.0,63,0.00,,,0.13,965.000000,,2013-07-19 17:52:00,
2013-07-19 13:01:00,87.0,73.0,-100.00,WSW,246,4.0,13.0,63,0.00,,,0.13,965.000000,,2013-07-19 18:01:00,
2013-07-19 13:32:00,89.0,71.0,-100.00,SW,229,4.0,13.0,56,0.01,,,0.13,1063.000000,,2013-07-19 18:32:00,
2013-07-19 13:43:00,89.0,71.0,-100.00,SW,229,4.0,13.0,56,0.01,,,0.13,1063.000000,,2013-07-19 18:43:00,
2013-07-19 13:52:00,89.0,71.0,-100.00,SW,229,4.0,13.0,56,0.01,,,0.13,1063.000000,,2013-07-19 18:52:00,
2013-07-19 14:01:00,89.0,71.0,-100.00,SW,229,4.0,13.0,56,0.01,,,0.13,1063.000000,,2013-07-19 19:01:00,
2013-07-19 14:32:00,89.0,70.0,-100.00,South,180,4.0,12.0,54,0.00,,,0.11,854.000000,,2013-07-19 19:32:00,
2013-07-19 14:43:00,89.0,70.0,-100.00,South,180,4.0,12.0,54,0.00,,,0.11,854.000000,,2013-07-19 19:43:00,
2013-07-19 14:52:00,89.0,70.0,-100.00,South,180,4.0,12.0,54,0.00,,,0.11,854.000000,,2013-07-19 19:52:00,
2013-07-19 15:01:00,89.0,70.0,-100.00,South,180,4.0,12.0,54,0.00,,,0.11,854.000000,,2013-07-19 20:01:00,
2013-07-19 15:33:00,90.0,72.0,-100.00,SW,216,4.0,12.0,55,0.00,,,0.10,948.000000,,2013-07-19 20:33:00,
2013-07-19 15:43:00,90.0,72.0,-100.00,SW,216,4.0,12.0,55,0.00,,,0.10,948.000000,,2013-07-19 20:43:00,
2013-07-19 15:52:00,90.0,72.0,-100.00,SW,216,4.0,12.0,55,0.00,,,0.10,948.000000,,2013-07-19 20:52:00,
2013-07-19 16:01:00,90.0,72.0,-100.00,SW,216,4.0,12.0,55,0.00,,,0.10,948.000000,,2013-07-19 21:01:00,
2013-07-19 16:32:00,90.0,71.0,-100.00,SW,236,5.0,13.0,53,0.00,,,0.09,880.000000,,2013-07-19 21:32:00,
2013-07-19 16:43:00,90.0,71.0,-100.00,SW,236,5.0,13.0,53,0.00,,,0.09,880.000000,,2013-07-19 21:43:00,
2013-07-19 16:52:00,90.0,71.0,-100.00,SW,236,5.0,13.0,53,0.00,,,0.09,880.000000,,2013-07-19 21:52:00,
2013-07-19 17:01:00,90.0,71.0,-100.00,SW,236,5.0,13.0,53,0.00,,,0.09,880.000000,,2013-07-19 22:01:00,
2013-07-19 17:32:00,90.0,71.0,-100.00,South,190,4.0,10.0,53,0.00,,,-99.99,721.000000,,2013-07-19 22:32:00,
2013-07-19 17:43:00,90.0,71.0,-100.00,South,190,4.0,10.0,53,0.00,,,-99.99,721.000000,,2013-07-19 22:43:00,
2013-07-19 17:52:00,90.0,71.0,-100.00,South,190,4.0,10.0,53,0.00,,,-99.99,721.000000,,2013-07-19 22:52:00,
2013-07-19 18:01:00,90.0,71.0,-100.00,South,190,4.0,10.0,53,0.00,,,-99.99,721.000000,,2013-07-19 23:01:00,
2013-07-19 18:33:00,90.0,71.0,-100.00,South,182,4.0,9.0,53,0.00,,,0.07,498.000000,,2013-07-19 23:33:00,
2013-07-19 18:43:00,90.0,71.0,-100.00,South,182,4.0,9.0,53,0.00,,,0.07,498.000000,,2013-07-19 23:43:00,
2013-07-19 18:52:00,90.0,71.0,-100.00,South,182,4.0,9.0,53,0.00,,,0.07,498.000000,,2013-07-19 23:52:00,
2013-07-19 19:01:00,90.0,71.0,-100.00,South,182,4.0,9.0,53,0.00,,,0.07,498.000000,,2013-07-20 00:01:00,
2013-07-19 19:32:00,88.0,71.0,-100.00,SSW,205,2.0,7.0,57,0.00,,,0.07,294.000000,,2013-07-20 00:32:00,
2013-07-19 19:43:00,88.0,71.0,-100.00,SSW,205,2.0,7.0,57,0.00,,,0.07,294.000000,,2013-07-20 00:43:00,
2013-07-19 19:52:00,88.0,71.0,-100.00,SSW,205,2.0,7.0,57,0.00,,,0.07,294.000000,,2013-07-20 00:52:00,
2013-07-19 20:01:00,88.0,71.0,-100.00,SSW,205,2.0,7.0,57,0.00,,,0.07,294.000000,,2013-07-20 01:01:00,
2013-07-19 20:32:00,82.0,70.0,-100.00,ESE,119,2.0,4.0,68,0.00,,,0.06,87.000000,,2013-07-20 01:32:00,
2013-07-19 20:52:00,82.0,70.0,-100.00,ESE,119,2.0,4.0,68,0.00,,,0.06,87.000000,,2013-07-20 01:52:00,
2013-07-19 21:02:00,82.0,70.0,-100.00,ESE,119,2.0,4.0,68,0.00,,,0.06,87.000000,,2013-07-20 02:02:00,
2013-07-19 21:33:00,79.0,71.0,-100.00,ESE,119,2.0,3.0,77,0.00,,,0.05,1.000000,,2013-07-20 02:33:00,
2013-07-19 21:44:00,79.0,71.0,-100.00,ESE,119,2.0,3.0,77,0.00,,,0.05,1.000000,,2013-07-20 02:44:00,
2013-07-19 21:52:00,79.0,71.0,-100.00,ESE,119,2.0,3.0,77,0.00,,,0.05,1.000000,,2013-07-20 02:52:00,
2013-07-19 22:02:00,79.0,71.0,-100.00,ESE,119,2.0,3.0,77,0.00,,,0.05,1.000000,,2013-07-20 03:02:00,
2013-07-19 22:32:00,78.0,71.0,-100.00,ESE,112,1.0,4.0,80,0.00,,,0.05,0.000000,,2013-07-20 03:32:00,
2013-07-19 22:44:00,78.0,71.0,-100.00,ESE,112,1.0,4.0,80,0.00,,,0.05,0.000000,,2013-07-20 03:44:00,
2013-07-19 22:53:00,78.0,71.0,-100.00,ESE,112,1.0,4.0,80,0.00,,,0.05,0.000000,,2013-07-20 03:53:00,
2013-07-19 23:02:00,78.0,71.0,-100.00,ESE,112,1.0,4.0,80,0.00,,,0.05,0.000000,,2013-07-20 04:02:00,
2013-07-19 23:33:00,76.0,72.0,-100.00,East,100,0.0,3.0,86,0.00,,,0.05,0.000000,,2013-07-20 04:33:00,
2013-07-19 23:44:00,76.0,72.0,-100.00,East,100,0.0,3.0,86,0.00,,,0.05,0.000000,,2013-07-20 04:44:00,
2013-07-19 23:52:00,76.0,72.0,-100.00,East,100,0.0,3.0,86,0.00,,,0.05,0.000000,,2013-07-20 04:52:00,